createdAt,value
2017-08-20T00:01:19.839Z,4.40
2017-08-20T00:03:47.331Z,7.25
2017-08-20T00:06:14.903Z,5.90
2017-08-20T00:14:48.369Z,5.85
2017-08-20T00:17:15.870Z,5.37
2017-08-20T00:19:43.403Z,5.30
2017-08-20T00:22:10.980Z,6.62
2017-08-20T00:24:38.467Z,6.80
2017-08-20T00:27:05.968Z,5.53
2017-08-20T00:29:33.520Z,7.50
2017-08-20T00:32:01.093Z,4.70
2017-08-20T00:34:28.584Z,6.07
2017-08-20T00:36:56.063Z,5.15
2017-08-20T00:39:23.772Z,6.35
2017-08-20T00:41:51.306Z,6.18
2017-08-20T00:44:18.803Z,6.30
2017-08-20T00:46:46.289Z,5.95
2017-08-20T00:49:13.785Z,5.90
2017-08-20T00:51:41.295Z,6.50
2017-08-20T00:54:08.810Z,6.28
2017-08-20T00:56:36.302Z,6.07
2017-08-20T00:59:03.819Z,6.95
2017-08-20T01:01:31.410Z,5.90
2017-08-20T01:03:58.925Z,6.93
2017-08-20T01:06:26.541Z,6.65
2017-08-20T01:08:54.034Z,7.37
2017-08-20T01:11:21.539Z,7.65
2017-08-20T01:13:49.052Z,6.32
2017-08-20T01:16:16.545Z,9.43
2017-08-20T01:18:44.039Z,10.05
2017-08-20T01:21:11.529Z,8.07
2017-08-20T01:23:39.014Z,6.55
2017-08-20T01:26:06.532Z,5.82
2017-08-20T01:28:34.040Z,7.78
2017-08-20T01:31:01.523Z,6.35
2017-08-20T01:33:29.043Z,5.50
2017-08-20T01:35:56.568Z,6.37
2017-08-20T01:38:24.086Z,5.87
2017-08-20T01:40:51.593Z,6.43
2017-08-20T01:43:19.863Z,6.18
2017-08-20T01:45:47.367Z,4.82
2017-08-20T01:48:14.867Z,15.52
2017-08-20T01:50:42.373Z,5.00
2017-08-20T01:53:09.879Z,5.65
2017-08-20T01:55:37.395Z,7.05
2017-08-20T01:58:04.888Z,5.00
2017-08-20T02:00:44.028Z,6.00
2017-08-20T02:03:11.560Z,5.30
2017-08-20T02:05:39.078Z,5.20
2017-08-20T02:08:06.573Z,5.47
2017-08-20T02:10:34.055Z,5.90
2017-08-20T02:13:02.371Z,5.32
2017-08-20T02:15:29.852Z,5.50
2017-08-20T02:17:57.894Z,5.60
2017-08-20T02:20:25.390Z,10.27
2017-08-20T02:22:52.879Z,6.70
2017-08-20T02:25:20.360Z,6.53
2017-08-20T02:27:47.848Z,5.35
2017-08-20T02:30:15.339Z,7.68
2017-08-20T02:32:42.840Z,7.40
2017-08-20T02:35:10.339Z,6.60
2017-08-20T02:37:38.561Z,7.32
2017-08-20T02:40:06.082Z,7.82
2017-08-20T02:42:33.628Z,6.90
2017-08-20T02:45:01.121Z,6.65
2017-08-20T02:47:29.403Z,9.98
2017-08-20T02:49:57.672Z,7.95
2017-08-20T02:52:25.172Z,8.65
2017-08-20T02:54:52.685Z,8.07
2017-08-20T02:57:20.190Z,8.77
2017-08-20T02:59:47.677Z,9.75
2017-08-20T03:02:15.209Z,10.13
2017-08-20T03:04:42.703Z,10.20
2017-08-20T03:07:10.200Z,11.18
2017-08-20T03:09:37.692Z,9.32
2017-08-20T03:12:05.184Z,11.02
2017-08-20T03:14:32.675Z,12.75
2017-08-20T03:17:00.192Z,14.98
2017-08-20T03:19:27.703Z,17.23
2017-08-20T03:21:55.189Z,14.43
2017-08-20T03:24:22.685Z,10.80
2017-08-20T03:26:50.223Z,8.27
2017-08-20T03:29:17.803Z,8.18
2017-08-20T03:31:45.770Z,8.38
2017-08-20T03:34:13.287Z,7.47
2017-08-20T03:36:40.812Z,8.07
2017-08-20T03:39:08.312Z,7.40
2017-08-20T03:41:35.822Z,7.10
2017-08-20T03:44:03.606Z,7.70
2017-08-20T03:46:31.088Z,8.18
2017-08-20T03:48:58.573Z,7.10
2017-08-20T03:51:26.111Z,8.35
2017-08-20T03:53:53.622Z,8.02
2017-08-20T03:56:21.105Z,8.45
2017-08-20T03:58:48.596Z,10.07
2017-08-20T04:01:16.099Z,8.50
2017-08-20T04:03:43.600Z,9.23
2017-08-20T04:06:11.095Z,8.05
2017-08-20T04:08:38.599Z,9.10
2017-08-20T04:11:06.148Z,8.93
2017-08-20T04:13:33.640Z,8.77
2017-08-20T04:16:01.158Z,8.40
2017-08-20T04:18:28.665Z,8.18
2017-08-20T04:20:56.183Z,7.75
2017-08-20T04:23:23.689Z,8.52
2017-08-20T04:25:51.180Z,8.68
2017-08-20T04:28:18.676Z,7.25
2017-08-20T04:30:46.181Z,7.97
2017-08-20T04:33:13.672Z,9.45
2017-08-20T04:35:41.199Z,9.30
2017-08-20T04:38:08.705Z,8.00
2017-08-20T04:40:36.216Z,10.65
2017-08-20T04:43:03.732Z,9.10
2017-08-20T04:45:31.243Z,8.63
2017-08-20T04:47:58.785Z,9.13
2017-08-20T04:50:26.331Z,10.15
2017-08-20T04:52:53.846Z,7.40
2017-08-20T04:55:21.336Z,10.05
2017-08-20T04:57:48.848Z,8.25
2017-08-20T05:00:16.430Z,7.18
2017-08-20T05:02:43.937Z,10.43
2017-08-20T05:05:11.444Z,8.38
2017-08-20T05:07:39.006Z,8.15
2017-08-20T05:10:06.531Z,7.30
2017-08-20T05:12:34.072Z,8.65
2017-08-20T05:15:01.581Z,7.40
2017-08-20T05:17:29.083Z,8.63
2017-08-20T05:19:56.644Z,7.55
2017-08-20T05:22:24.154Z,7.40
2017-08-20T05:24:51.671Z,8.02
2017-08-20T05:27:19.221Z,6.90
2017-08-20T05:29:46.738Z,7.78
2017-08-20T05:32:14.235Z,9.35
2017-08-20T05:34:41.958Z,9.25
2017-08-20T05:37:09.561Z,17.80
2017-08-20T05:39:37.059Z,7.22
2017-08-20T05:42:04.581Z,6.40
2017-08-20T05:44:32.136Z,6.18
2017-08-20T05:47:00.264Z,7.25
2017-08-20T05:49:27.766Z,9.20
2017-08-20T05:51:55.329Z,7.12
2017-08-20T05:54:22.834Z,6.68
2017-08-20T05:56:50.358Z,6.00
2017-08-20T05:59:17.892Z,7.18
2017-08-20T06:01:45.393Z,7.82
2017-08-20T06:04:12.934Z,8.43
2017-08-20T06:06:41.196Z,5.65
2017-08-20T06:09:08.717Z,6.05
2017-08-20T06:11:36.276Z,5.57
2017-08-20T06:14:03.815Z,6.37
2017-08-20T06:16:31.337Z,6.10
2017-08-20T06:18:58.877Z,6.50
2017-08-20T06:21:26.416Z,5.10
2017-08-20T06:23:53.912Z,5.82
2017-08-20T06:26:21.471Z,6.32
2017-08-20T06:28:48.972Z,7.62
2017-08-20T06:31:16.498Z,5.93
2017-08-20T06:33:44.256Z,5.10
2017-08-20T06:36:11.896Z,7.03
2017-08-20T06:38:39.416Z,4.95
2017-08-20T06:41:06.917Z,6.05
2017-08-20T06:43:34.424Z,5.40
2017-08-20T06:46:01.944Z,4.93
2017-08-20T06:48:29.443Z,5.53
2017-08-20T06:50:57.009Z,7.68
2017-08-20T06:53:24.499Z,10.60
2017-08-20T06:55:51.996Z,8.63
2017-08-20T06:58:19.503Z,3.45
2017-08-20T07:00:47.462Z,7.80
2017-08-20T07:03:15.028Z,6.15
2017-08-20T07:05:42.536Z,3.85
2017-08-20T07:08:10.148Z,6.53
2017-08-20T07:10:37.684Z,6.30
2017-08-20T07:13:05.384Z,5.32
2017-08-20T07:15:32.896Z,5.60
2017-08-20T07:18:00.432Z,3.50
2017-08-20T07:20:27.947Z,5.55
2017-08-20T07:22:55.576Z,7.60
2017-08-20T07:25:23.088Z,4.18
2017-08-20T07:27:50.658Z,9.02
2017-08-20T07:30:18.318Z,5.85
2017-08-20T07:32:45.857Z,4.68
2017-08-20T07:35:13.367Z,3.33
2017-08-20T07:37:41.353Z,13.73
2017-08-20T07:40:08.864Z,5.62
2017-08-20T07:42:36.361Z,5.20
2017-08-20T07:45:03.871Z,3.83
2017-08-20T07:47:31.394Z,2.58
2017-08-20T07:49:58.883Z,3.87
2017-08-20T07:52:26.380Z,4.82
2017-08-20T07:54:53.911Z,4.72
2017-08-20T07:57:21.446Z,2.83
2017-08-20T07:59:48.937Z,4.75
2017-08-20T08:02:16.475Z,7.20
2017-08-20T08:04:44.036Z,4.15
2017-08-20T08:07:11.596Z,6.93
2017-08-20T08:09:39.128Z,7.18
2017-08-20T08:12:06.667Z,5.03
2017-08-20T08:14:34.202Z,4.40
2017-08-20T08:17:01.699Z,5.12
2017-08-20T08:19:29.278Z,11.05
2017-08-20T08:21:56.850Z,10.23
2017-08-20T08:24:24.416Z,9.90
2017-08-20T08:26:51.931Z,7.60
2017-08-20T08:29:19.465Z,6.85
2017-08-20T08:31:47.049Z,11.00
2017-08-20T08:34:14.602Z,5.78
2017-08-20T08:36:42.277Z,6.00
2017-08-20T08:39:09.766Z,11.50
2017-08-20T08:41:37.436Z,9.23
2017-08-20T08:44:05.136Z,7.12
2017-08-20T08:46:32.750Z,6.47
2017-08-20T08:49:00.311Z,5.93
2017-08-20T08:51:28.133Z,9.23
2017-08-20T08:53:55.707Z,5.78
2017-08-20T08:56:23.289Z,7.65
2017-08-20T08:58:51.010Z,5.18
2017-08-20T09:01:18.567Z,8.27
2017-08-20T09:03:46.159Z,4.30
2017-08-20T09:06:13.914Z,7.28
2017-08-20T09:08:42.009Z,4.50
2017-08-20T09:11:09.570Z,6.30
2017-08-20T09:13:37.119Z,6.45
2017-08-20T09:16:04.697Z,5.10
2017-08-20T09:18:32.332Z,4.23
2017-08-20T09:21:01.122Z,5.63
2017-08-20T09:23:28.750Z,6.87
2017-08-20T09:25:56.259Z,5.87
2017-08-20T09:28:23.798Z,3.30
2017-08-20T09:30:51.646Z,8.20
2017-08-20T09:33:19.194Z,5.90
2017-08-20T09:35:46.699Z,6.07
2017-08-20T09:38:14.303Z,6.10
2017-08-20T09:40:41.828Z,15.87
2017-08-20T09:43:09.383Z,2.40
2017-08-20T09:45:37.185Z,4.13
2017-08-20T09:48:04.797Z,5.07
2017-08-20T09:50:32.464Z,7.37
2017-08-20T09:53:00.117Z,4.00
2017-08-20T09:55:27.726Z,5.93
2017-08-20T09:57:55.301Z,4.20
2017-08-20T10:00:22.804Z,6.97
2017-08-20T10:02:50.519Z,6.90
2017-08-20T10:05:18.100Z,4.83
2017-08-20T10:07:45.782Z,10.50
2017-08-20T10:10:13.385Z,9.43
2017-08-20T10:12:40.913Z,4.40
2017-08-20T10:15:08.442Z,7.60
2017-08-20T10:17:36.086Z,6.50
2017-08-20T10:20:03.632Z,3.13
2017-08-20T10:22:31.234Z,3.80
2017-08-20T10:24:58.957Z,8.07
2017-08-20T10:27:26.447Z,6.37
2017-08-20T10:29:54.072Z,6.70
2017-08-20T10:32:21.686Z,4.03
2017-08-20T10:34:49.218Z,7.23
2017-08-20T10:37:17.356Z,10.50
2017-08-20T10:39:44.871Z,6.73
2017-08-20T10:42:12.408Z,3.17
2017-08-20T10:44:39.906Z,4.23
2017-08-20T10:47:12.296Z,7.10
2017-08-20T10:49:39.825Z,9.10
2017-08-20T10:52:07.322Z,4.47
2017-08-20T10:54:34.878Z,4.03
2017-08-20T10:57:02.418Z,3.20
2017-08-20T10:59:29.908Z,3.45
2017-08-20T11:01:57.451Z,4.00
2017-08-20T11:04:24.935Z,4.10
2017-08-20T11:06:52.428Z,5.45
2017-08-20T11:09:20.221Z,5.95
2017-08-20T11:11:47.728Z,5.05
2017-08-20T11:14:17.117Z,5.68
2017-08-20T11:16:44.688Z,7.25
2017-08-20T11:19:12.217Z,6.03
2017-08-20T11:21:40.087Z,5.75
2017-08-20T11:24:07.592Z,5.60
2017-08-20T11:26:35.112Z,4.82
2017-08-20T11:29:02.668Z,9.75
2017-08-20T11:31:30.244Z,6.40
2017-08-20T11:33:57.810Z,6.05
2017-08-20T11:36:26.232Z,5.03
2017-08-20T11:38:53.791Z,4.62
2017-08-20T11:41:21.299Z,5.12
2017-08-20T11:43:49.747Z,9.75
2017-08-20T11:46:18.939Z,5.32
2017-08-20T11:48:46.535Z,5.95
2017-08-20T11:51:14.077Z,10.65
2017-08-20T11:53:41.768Z,4.45
2017-08-20T11:56:09.350Z,8.77
2017-08-20T11:58:36.889Z,6.07
2017-08-20T12:01:08.620Z,5.93
2017-08-20T12:03:36.254Z,4.93
2017-08-20T12:06:03.794Z,6.10
2017-08-20T12:08:31.360Z,5.62
2017-08-20T12:10:58.892Z,3.25
2017-08-20T12:13:26.386Z,3.20
2017-08-20T12:15:53.898Z,3.83
2017-08-20T12:18:21.410Z,3.00
2017-08-20T12:20:48.933Z,3.60
2017-08-20T12:23:16.447Z,5.93
2017-08-20T12:25:43.954Z,3.75
2017-08-20T12:28:11.439Z,4.85
2017-08-20T12:30:38.939Z,4.60
2017-08-20T12:33:06.431Z,4.40
2017-08-20T12:35:33.954Z,3.67
2017-08-20T12:38:01.473Z,3.83
2017-08-20T12:40:28.999Z,7.12
2017-08-20T12:42:56.503Z,5.47
2017-08-20T12:45:24.029Z,3.72
2017-08-20T12:47:51.542Z,3.80
2017-08-20T12:50:19.069Z,3.70
2017-08-20T12:52:46.584Z,7.53
2017-08-20T12:55:14.111Z,3.03
2017-08-20T12:57:41.608Z,4.47
2017-08-20T13:00:09.106Z,3.85
2017-08-20T13:02:36.637Z,5.13
2017-08-20T13:05:04.152Z,4.93
2017-08-20T13:07:31.688Z,2.33
2017-08-20T13:09:59.214Z,3.57
2017-08-20T13:12:26.732Z,2.55
2017-08-20T13:14:54.260Z,6.90
2017-08-20T13:17:21.798Z,2.67
2017-08-20T13:19:49.350Z,2.80
2017-08-20T13:22:16.871Z,4.83
2017-08-20T13:24:44.381Z,3.50
2017-08-20T13:27:11.898Z,3.43
2017-08-20T13:29:39.394Z,2.73
2017-08-20T13:32:06.922Z,3.07
2017-08-20T13:34:34.424Z,3.03
2017-08-20T13:37:01.997Z,3.58
2017-08-20T13:39:29.522Z,4.13
2017-08-20T13:41:57.026Z,3.10
2017-08-20T13:44:24.593Z,2.83
2017-08-20T13:46:52.101Z,2.60
2017-08-20T13:49:19.590Z,2.10
2017-08-20T13:51:47.088Z,2.80
2017-08-20T13:54:14.589Z,2.13
2017-08-20T13:56:42.079Z,2.50
2017-08-20T13:59:09.575Z,3.97
2017-08-20T14:01:42.593Z,4.33
2017-08-20T14:04:11.749Z,1.70
2017-08-20T14:06:39.257Z,1.40
2017-08-20T14:09:06.756Z,2.00
2017-08-20T14:11:34.275Z,1.60
2017-08-20T14:14:01.848Z,1.83
2017-08-20T14:16:29.358Z,5.10
2017-08-20T14:18:56.871Z,2.07
2017-08-20T14:21:24.391Z,2.20
2017-08-20T14:23:51.953Z,1.70
2017-08-20T14:26:19.458Z,2.13
2017-08-20T14:28:46.976Z,2.80
2017-08-20T14:31:14.483Z,1.80
2017-08-20T14:33:41.973Z,2.27
2017-08-20T14:36:09.480Z,2.90
2017-08-20T14:38:36.980Z,2.03
2017-08-20T14:41:04.487Z,2.63
2017-08-20T14:43:31.994Z,2.20
2017-08-20T14:45:59.566Z,1.87
2017-08-20T14:48:27.084Z,2.33
2017-08-20T14:50:54.594Z,2.60
2017-08-20T14:53:22.084Z,2.70
2017-08-20T14:55:49.604Z,1.73
2017-08-20T14:58:17.120Z,5.95
2017-08-20T15:00:44.629Z,3.22
2017-08-20T15:03:12.150Z,3.90
2017-08-20T15:05:39.653Z,3.85
2017-08-20T15:08:07.183Z,6.12
2017-08-20T15:10:34.692Z,5.72
2017-08-20T15:13:02.181Z,3.55
2017-08-20T15:15:29.704Z,3.20
2017-08-20T15:17:57.199Z,5.50
2017-08-20T15:20:24.739Z,4.72
2017-08-20T15:22:52.262Z,3.85
2017-08-20T15:25:19.767Z,6.40
2017-08-20T15:27:47.288Z,8.32
2017-08-20T15:30:14.820Z,4.60
2017-08-20T15:32:42.352Z,7.20
2017-08-20T15:35:09.847Z,6.50
2017-08-20T15:37:37.351Z,6.20
2017-08-20T15:40:04.848Z,3.92
2017-08-20T15:42:32.391Z,6.07
2017-08-20T15:44:59.944Z,6.72
2017-08-20T15:47:27.482Z,5.57
2017-08-20T15:49:55.082Z,9.32
2017-08-20T15:52:22.612Z,7.00
2017-08-20T15:54:50.114Z,3.85
2017-08-20T15:57:17.634Z,4.43
2017-08-20T15:59:45.136Z,4.03
2017-08-20T16:02:12.624Z,6.85
2017-08-20T16:04:40.145Z,2.33
2017-08-20T16:07:07.645Z,2.40
2017-08-20T16:09:35.158Z,2.17
2017-08-20T16:12:02.695Z,4.80
2017-08-20T16:14:30.581Z,2.67
2017-08-20T16:16:58.283Z,3.45
2017-08-20T16:19:25.775Z,2.83
2017-08-20T16:21:53.270Z,3.20
2017-08-20T16:24:20.773Z,2.30
2017-08-20T16:26:48.298Z,5.78
2017-08-20T16:29:15.821Z,2.25
2017-08-20T16:31:43.359Z,2.40
2017-08-20T16:34:10.903Z,2.15
2017-08-20T16:36:38.403Z,4.57
2017-08-20T16:39:05.970Z,2.00
2017-08-20T16:41:33.478Z,3.55
2017-08-20T16:44:01.038Z,2.50
2017-08-20T16:46:28.555Z,6.12
2017-08-20T16:48:56.123Z,1.98
2017-08-20T16:51:24.003Z,2.60
2017-08-20T16:53:51.533Z,3.40
2017-08-20T16:56:19.067Z,1.85
2017-08-20T16:58:49.602Z,2.60
2017-08-20T17:01:17.135Z,2.37
2017-08-20T17:03:44.671Z,2.20
2017-08-20T17:06:12.183Z,2.08
2017-08-20T17:08:39.703Z,3.10
2017-08-20T17:11:07.235Z,2.15
2017-08-20T17:13:34.724Z,2.17
2017-08-20T17:16:02.267Z,2.05
2017-08-20T17:18:29.797Z,3.65
2017-08-20T17:20:57.332Z,2.17
2017-08-20T17:23:24.873Z,3.62
2017-08-20T17:25:52.366Z,4.72
2017-08-20T17:28:19.890Z,6.65
2017-08-20T17:30:47.382Z,4.37
2017-08-20T17:33:14.911Z,2.47
2017-08-20T17:35:42.388Z,2.37
2017-08-20T17:38:09.911Z,2.40
2017-08-20T17:40:37.434Z,2.10
2017-08-20T17:43:04.943Z,2.42
2017-08-20T17:45:32.438Z,3.33
2017-08-20T17:47:59.955Z,2.00
2017-08-20T17:50:27.440Z,2.58
2017-08-20T17:52:55.298Z,2.45
2017-08-20T17:55:23.095Z,1.83
2017-08-20T17:57:50.608Z,2.12
2017-08-20T18:00:18.112Z,2.00
2017-08-20T18:02:45.723Z,3.08
2017-08-20T18:05:13.221Z,3.87
2017-08-20T18:07:41.922Z,2.03
2017-08-20T18:10:09.419Z,4.37
2017-08-20T18:12:36.924Z,4.32
2017-08-20T18:15:04.428Z,4.72
2017-08-20T18:17:31.937Z,1.70
2017-08-20T18:20:00.826Z,1.80
2017-08-20T18:22:32.218Z,3.22
2017-08-20T18:24:59.885Z,1.80
2017-08-20T18:27:27.369Z,4.28
2017-08-20T18:29:54.915Z,3.75
2017-08-20T18:32:22.425Z,5.32
2017-08-20T18:37:51.023Z,3.33
2017-08-20T18:40:18.683Z,2.90
2017-08-20T18:42:47.547Z,3.17
2017-08-20T18:45:15.161Z,2.45
2017-08-20T18:47:42.758Z,2.67
2017-08-20T18:50:10.280Z,2.65
2017-08-20T18:52:37.802Z,3.72
2017-08-20T18:55:05.319Z,1.90
2017-08-20T18:57:32.876Z,3.62
2017-08-20T19:00:00.381Z,2.72
2017-08-20T19:02:27.909Z,2.40
2017-08-20T19:04:57.176Z,4.70
2017-08-20T19:07:24.749Z,3.30
2017-08-20T19:09:52.241Z,3.90
2017-08-20T19:12:19.789Z,3.95
2017-08-20T19:14:47.308Z,3.15
2017-08-20T19:17:14.817Z,2.45
2017-08-20T19:19:42.333Z,3.45
2017-08-20T19:22:09.834Z,3.45
2017-08-20T19:24:37.353Z,5.53
2017-08-20T19:27:04.878Z,2.75
2017-08-20T19:29:32.384Z,3.28
2017-08-20T19:31:59.897Z,3.28
2017-08-20T19:34:27.446Z,5.55
2017-08-20T19:36:54.934Z,7.95
2017-08-20T19:39:22.458Z,3.85
2017-08-20T19:41:49.978Z,3.42
2017-08-20T19:44:17.502Z,3.50
2017-08-20T19:46:45.002Z,3.22
2017-08-20T19:49:12.520Z,2.70
2017-08-20T19:51:40.055Z,6.25
2017-08-20T19:54:07.675Z,5.12
2017-08-20T19:56:35.196Z,3.83
2017-08-20T19:59:02.729Z,4.07
2017-08-20T20:01:30.219Z,4.90
2017-08-20T20:03:57.752Z,4.40
2017-08-20T20:06:25.247Z,3.10
2017-08-20T20:08:53.338Z,3.62
2017-08-20T20:11:20.863Z,3.28
2017-08-20T20:13:48.421Z,3.17
2017-08-20T20:16:16.037Z,2.83
2017-08-20T20:18:43.548Z,3.35
2017-08-20T20:21:11.094Z,3.10
2017-08-20T20:23:38.606Z,4.05
2017-08-20T20:26:06.099Z,6.78
2017-08-20T20:28:33.600Z,4.32
2017-08-20T20:31:01.133Z,4.25
2017-08-20T20:33:28.724Z,3.50
2017-08-20T20:35:56.251Z,2.97
2017-08-20T20:38:23.810Z,2.85
2017-08-20T20:40:51.337Z,2.97
2017-08-20T20:43:18.827Z,3.80
2017-08-20T20:45:46.357Z,3.35
2017-08-20T20:48:13.902Z,4.60
2017-08-20T20:50:41.442Z,4.57
2017-08-20T20:53:08.980Z,3.28
2017-08-20T20:55:36.488Z,3.62
2017-08-20T20:58:04.005Z,4.82
2017-08-20T21:00:31.644Z,3.58
2017-08-20T21:02:59.236Z,5.53
2017-08-20T21:08:17.231Z,4.37
2017-08-20T21:10:44.800Z,4.95
2017-08-20T21:13:12.866Z,3.75
2017-08-20T21:15:40.496Z,9.50
2017-08-20T21:18:08.125Z,6.80
2017-08-20T21:20:35.871Z,4.00
2017-08-20T21:23:03.490Z,4.35
2017-08-20T21:25:31.027Z,4.22
2017-08-20T21:27:58.543Z,3.80
2017-08-20T21:30:26.032Z,5.57
2017-08-20T21:32:54.552Z,3.72
2017-08-20T21:35:22.214Z,5.93
2017-08-20T21:37:49.706Z,3.95
2017-08-20T21:40:17.264Z,4.00
2017-08-20T21:42:44.784Z,7.22
2017-08-20T21:45:12.320Z,10.27
2017-08-20T21:47:39.824Z,4.55
2017-08-20T21:50:07.385Z,4.22
2017-08-20T21:52:35.229Z,5.10
2017-08-20T21:55:02.729Z,5.03
2017-08-20T21:57:30.210Z,4.70
2017-08-20T21:59:57.724Z,3.55
2017-08-20T22:02:25.233Z,3.12
2017-08-20T22:04:52.737Z,3.15
2017-08-20T22:07:21.219Z,3.80
2017-08-20T22:09:50.279Z,4.32
2017-08-20T22:12:17.848Z,4.15
2017-08-20T22:14:45.380Z,4.10
2017-08-20T22:17:12.920Z,3.90
2017-08-20T22:19:40.450Z,3.95
2017-08-20T22:22:08.056Z,6.70
2017-08-20T22:24:35.660Z,4.20
2017-08-20T22:27:03.265Z,4.30
2017-08-20T22:29:30.811Z,4.18
2017-08-20T22:31:58.359Z,5.25
2017-08-20T22:34:25.859Z,4.60
2017-08-20T22:36:53.375Z,6.35
2017-08-20T22:39:20.931Z,5.15
2017-08-20T22:41:48.476Z,5.95
2017-08-20T22:44:16.029Z,4.85
2017-08-20T22:46:43.600Z,7.85
2017-08-20T22:49:11.245Z,5.57
2017-08-20T22:51:38.932Z,5.53
2017-08-20T22:54:06.481Z,5.20
2017-08-20T22:56:34.052Z,5.75
2017-08-20T22:59:01.676Z,6.95
2017-08-20T23:01:29.325Z,4.90
2017-08-20T23:03:57.311Z,8.48
2017-08-20T23:06:24.991Z,5.90
2017-08-20T23:08:52.648Z,8.23
2017-08-20T23:11:20.593Z,5.28
2017-08-20T23:13:48.157Z,7.70
2017-08-20T23:16:15.710Z,11.70
2017-08-20T23:18:43.295Z,6.20
2017-08-20T23:21:10.865Z,7.18
2017-08-20T23:23:38.383Z,12.10
2017-08-20T23:26:05.983Z,7.75
2017-08-20T23:28:33.497Z,9.77
2017-08-20T23:31:01.006Z,8.98
2017-08-20T23:33:28.523Z,9.20
2017-08-20T23:35:56.021Z,7.53
2017-08-20T23:38:23.534Z,8.57
2017-08-20T23:40:51.046Z,5.68
2017-08-20T23:43:19.060Z,6.05
2017-08-20T23:45:46.554Z,4.28
2017-08-20T23:48:14.809Z,3.85
2017-08-20T23:50:42.300Z,5.05
2017-08-20T23:53:09.797Z,8.25
2017-08-20T23:55:37.311Z,8.50
2017-08-20T23:58:04.803Z,10.57
